Terminal Aerodrome Forecast
Issued by NWS

Home | Current Version | Previous Version | Text Only | Print | Product List | Glossary On
Versions: 1 2 3 4 5 6 7 8 9 10 11 12 13 14 15
000
FTUS45 KABQ 071740
TAFGUP
TAF
KGUP 071740Z 0718/0818 24012KT P6SM SCT090
     FM072100 24014G20KT P6SM VCSH SCT080 SCT150
     FM080200 25007KT P6SM SCT080 BKN120
     FM080600 VRB05KT P6SM SCT120=

USA.gov is the U.S. government's official web portal to all federal, state and local government web resources and services.